Time;durP1;ratioP1;P1;durP2;ratioP2;P2;SDS_P1;SDS_P2;PMS_P1;PMS_P2;Temp;Humidity;BMP_temperature;BMP_pressure;BME280_temperature;BME280_humidity;BME280_pressure;Samples;Min_cycle;Max_cycle;Signal;HPM_P1;HPM_P2
2021/12/13 00:02:24;;;;;;;5.25;3.40;;;3.90;99.90;;;;;;5087948;28;20024;-81
2021/12/13 00:05:17;;;;;;;7.80;3.40;;;3.90;99.90;;;;;;5076104;28;20087;-81
2021/12/13 00:07:51;;;;;;;8.55;4.40;;;3.90;99.90;;;;;;5091648;28;20117;-81
2021/12/13 00:10:20;;;;;;;8.82;4.47;;;4.00;99.90;;;;;;5075960;28;20101;-81
2021/12/13 00:12:58;;;;;;;7.22;3.95;;;4.00;99.90;;;;;;5091458;28;20136;-81
2021/12/13 00:15:32;;;;;;;8.35;3.92;;;4.00;99.90;;;;;;5091438;28;20031;-81
2021/12/13 00:17:59;;;;;;;7.25;3.88;;;4.00;99.90;;;;;;5076175;28;20028;-81
2021/12/13 00:20:36;;;;;;;6.28;3.90;;;4.00;99.90;;;;;;5091379;28;20488;-81
2021/12/13 00:23:14;;;;;;;6.88;3.63;;;4.00;99.90;;;;;;5091891;28;20087;-81
2021/12/13 00:25:44;;;;;;;6.82;3.90;;;4.00;99.90;;;;;;5075731;28;20538;-81
2021/12/13 00:28:13;;;;;;;9.45;4.40;;;4.00;99.90;;;;;;5091289;28;20412;-81
2021/12/13 00:31:00;;;;;;;8.48;4.03;;;4.00;99.90;;;;;;5075816;28;20025;-81
2021/12/13 00:33:37;;;;;;;9.40;3.70;;;4.00;99.90;;;;;;5091166;28;20503;-81
2021/12/13 00:36:16;;;;;;;6.63;3.90;;;4.00;99.90;;;;;;5090963;28;20111;-81
2021/12/13 00:38:46;;;;;;;5.15;3.45;;;4.00;99.90;;;;;;5090918;28;20090;-81
2021/12/13 00:41:22;;;;;;;8.45;4.20;;;4.00;99.90;;;;;;5091016;28;20035;-81
2021/12/13 00:43:56;;;;;;;10.40;5.07;;;4.00;99.90;;;;;;5090929;28;20480;-81
2021/12/13 00:46:24;;;;;;;7.30;4.32;;;4.00;99.90;;;;;;5090931;28;20059;-81
2021/12/13 00:48:54;;;;;;;9.15;4.10;;;4.00;99.90;;;;;;5090774;28;20056;-81
2021/12/13 00:51:32;;;;;;;11.15;4.53;;;4.00;99.90;;;;;;5090761;28;20027;-81
2021/12/13 00:54:02;;;;;;;9.18;3.83;;;4.00;99.90;;;;;;5075388;28;20104;-80
2021/12/13 00:56:50;;;;;;;8.45;4.05;;;4.10;99.90;;;;;;5075351;28;20024;-80
2021/12/13 00:59:33;;;;;;;6.60;3.75;;;4.00;99.90;;;;;;5090713;28;20024;-81
2021/12/13 01:02:26;;;;;;;5.40;3.20;;;4.00;99.90;;;;;;5075253;28;20016;-80
2021/12/13 01:05:22;;;;;;;9.43;3.50;;;4.00;99.90;;;;;;5090620;28;20028;-81
2021/12/13 01:08:17;;;;;;;5.97;3.90;;;4.00;99.90;;;;;;5074962;28;20029;-81
2021/12/13 01:10:55;;;;;;;;;;;4.00;99.90;;;;;;5090830;28;20097;-81
2021/12/13 01:13:28;;;;;;;6.63;3.72;;;4.00;99.90;;;;;;5074324;28;19911;-80
2021/12/13 01:19:27;;;;;;;5.15;3.47;;;4.00;99.90;;;;;;5075310;28;20035;-81
2021/12/13 01:22:02;;;;;;;6.47;3.53;;;4.00;99.90;;;;;;5074921;28;20016;-81
2021/12/13 01:25:14;;;;;;;5.53;3.25;;;4.00;99.90;;;;;;5090223;28;20484;-81
2021/12/13 01:27:41;;;;;;;7.85;4.15;;;4.00;99.90;;;;;;5074432;28;20470;-81
2021/12/13 01:30:11;;;;;;;6.93;4.10;;;4.00;99.90;;;;;;5090132;28;20024;-81
2021/12/13 01:32:41;;;;;;;7.45;3.42;;;4.00;99.90;;;;;;5074714;28;20119;-81
2021/12/13 01:35:14;;;;;;;5.63;3.60;;;4.00;99.90;;;;;;5089831;28;20039;-81
2021/12/13 01:37:40;;;;;;;5.07;3.15;;;3.90;99.90;;;;;;5074553;28;20027;-81
2021/12/13 01:40:11;;;;;;;6.65;3.80;;;4.00;99.90;;;;;;5094113;28;20052;-80
2021/12/13 01:42:38;;;;;;;6.95;3.83;;;4.00;99.90;;;;;;5076342;28;20032;-81
2021/12/13 01:45:14;;;;;;;7.85;4.35;;;4.00;99.90;;;;;;5094425;28;20031;-81
2021/12/13 01:47:46;;;;;;;7.22;4.63;;;4.00;99.90;;;;;;5076118;28;20051;-81
2021/12/13 01:50:23;;;;;;;5.70;3.55;;;4.00;99.90;;;;;;5076158;28;20028;-81
2021/12/13 01:52:53;;;;;;;7.40;4.25;;;4.00;99.90;;;;;;5076115;28;20024;-81
2021/12/13 01:55:35;;;;;;;8.38;4.53;;;3.90;99.90;;;;;;5075966;28;20025;-81
2021/12/13 01:58:20;;;;;;;7.72;4.28;;;4.00;99.90;;;;;;5075962;28;20036;-81
2021/12/13 02:03:54;;;;;;;7.10;4.03;;;4.00;99.90;;;;;;5094367;28;20039;-81
2021/12/13 02:06:35;;;;;;;7.10;4.10;;;4.00;99.90;;;;;;5075798;28;20046;-81
2021/12/13 02:09:16;;;;;;;6.13;3.85;;;4.00;99.90;;;;;;5075765;28;20027;-81
2021/12/13 02:11:45;;;;;;;5.60;3.92;;;4.00;99.90;;;;;;5093963;28;20054;-81
2021/12/13 02:14:19;;;;;;;9.27;4.75;;;4.10;99.90;;;;;;5075598;28;20100;-81
2021/12/13 02:17:08;;;;;;;7.53;3.67;;;4.10;99.90;;;;;;5075728;28;20332;-81
2021/12/13 02:19:34;;;;;;;7.43;3.75;;;4.10;99.90;;;;;;5094053;28;20016;-81
2021/12/13 02:22:24;;;;;;;6.60;3.85;;;4.10;99.90;;;;;;5093685;28;20016;-80
2021/12/13 02:24:53;;;;;;;5.90;3.55;;;4.10;99.90;;;;;;5075512;28;20119;-81
2021/12/13 02:27:26;;;;;;;10.57;4.20;;;4.10;99.90;;;;;;5075390;28;20028;-81
2021/12/13 02:29:54;;;;;;;5.57;3.53;;;4.10;99.90;;;;;;5075493;28;20027;-81
2021/12/13 02:32:25;;;;;;;6.43;3.47;;;4.20;99.90;;;;;;5093540;28;20025;-81
2021/12/13 02:34:51;;;;;;;5.63;3.20;;;4.10;99.90;;;;;;5093467;28;20023;-81
2021/12/13 02:37:18;;;;;;;8.82;3.90;;;4.10;99.90;;;;;;5075235;28;20047;-81
2021/12/13 02:39:47;;;;;;;8.45;3.70;;;4.00;99.90;;;;;;5093278;28;20047;-81
2021/12/13 02:42:17;;;;;;;5.00;3.33;;;4.00;99.90;;;;;;5075251;28;20020;-81
2021/12/13 02:45:04;;;;;;;4.72;3.40;;;3.90;99.90;;;;;;5093419;28;20373;-81
2021/12/13 02:47:38;;;;;;;8.40;3.83;;;3.90;99.90;;;;;;5093293;28;20073;-80
2021/12/13 02:50:08;;;;;;;6.78;3.22;;;4.00;99.90;;;;;;5075208;28;20059;-81
2021/12/13 02:52:34;;;;;;;8.60;3.90;;;4.00;99.90;;;;;;5075133;28;20398;-81
2021/12/13 02:55:08;;;;;;;4.78;3.50;;;4.00;99.90;;;;;;5093133;28;20028;-81
2021/12/13 02:57:36;;;;;;;;;;;4.00;99.90;;;;;;5075445;28;20024;-81
2021/12/13 03:00:12;;;;;;;5.25;3.40;;;4.00;99.90;;;;;;5075212;28;19910;-81
2021/12/13 03:02:42;;;;;;;7.57;3.90;;;3.90;99.90;;;;;;5074987;28;20020;-81
2021/12/13 03:05:14;;;;;;;5.47;3.20;;;3.90;99.90;;;;;;5074906;28;20024;-80
2021/12/13 03:07:47;;;;;;;5.60;3.00;;;3.90;99.90;;;;;;5074971;28;20035;-81
2021/12/13 03:10:21;;;;;;;4.97;3.28;;;3.90;99.90;;;;;;5074980;28;20131;-81
2021/12/13 03:12:47;;;;;;;4.80;2.97;;;4.00;99.90;;;;;;5074948;28;20427;-81
2021/12/13 03:15:17;;;;;;;6.05;2.80;;;4.00;99.90;;;;;;5092866;28;20032;-81
2021/12/13 03:17:55;;;;;;;7.55;3.30;;;4.00;99.90;;;;;;5074770;28;20026;-81
2021/12/13 03:20:54;;;;;;;4.75;2.97;;;4.00;99.90;;;;;;5074897;28;20059;-81
2021/12/13 03:23:46;;;;;;;6.72;3.30;;;4.00;99.90;;;;;;5074870;28;20027;-81
2021/12/13 03:26:50;;;;;;;5.22;3.10;;;4.00;99.90;;;;;;5092987;28;20024;-81
2021/12/13 03:29:36;;;;;;;6.72;3.35;;;4.00;99.90;;;;;;5074876;28;20032;-81
2021/12/13 03:32:03;;;;;;;5.07;3.10;;;4.00;99.90;;;;;;5074794;28;20024;-81
2021/12/13 03:34:35;;;;;;;5.55;3.28;;;3.90;99.90;;;;;;5092745;28;20024;-81
2021/12/13 03:37:08;;;;;;;7.38;3.70;;;3.90;99.90;;;;;;5074739;28;20020;-81
2021/12/13 03:39:49;;;;;;;4.15;2.58;;;3.90;99.90;;;;;;5078252;28;20093;-81
2021/12/13 03:42:24;;;;;;;3.45;2.28;;;3.90;99.90;;;;;;5078593;28;20047;-81
2021/12/13 03:44:56;;;;;;;4.30;2.60;;;3.90;99.90;;;;;;5096765;28;20059;-81
2021/12/13 03:47:36;;;;;;;6.47;4.25;;;4.00;99.90;;;;;;5078468;28;20430;-81
2021/12/13 03:50:11;;;;;;;46.83;20.00;;;3.90;99.90;;;;;;5078478;28;20078;-81
2021/12/13 03:52:42;;;;;;;27.25;11.63;;;4.00;99.90;;;;;;5078674;28;20429;-81
2021/12/13 03:55:11;;;;;;;19.80;9.45;;;4.00;99.90;;;;;;5078282;28;20391;-81
2021/12/13 03:57:42;;;;;;;38.22;16.90;;;4.00;99.90;;;;;;5096467;28;20020;-81
2021/12/13 04:00:12;;;;;;;38.63;18.88;;;4.00;99.90;;;;;;5078240;28;20095;-81
2021/12/13 04:02:40;;;;;;;20.98;11.00;;;4.00;99.90;;;;;;5078204;28;20434;-81
2021/12/13 04:05:09;;;;;;;20.88;11.55;;;4.10;99.90;;;;;;5078131;28;20032;-81
2021/12/13 04:07:41;;;;;;;20.48;10.65;;;4.10;99.90;;;;;;5096306;28;20030;-81
2021/12/13 04:10:19;;;;;;;13.23;7.20;;;4.10;99.90;;;;;;5078053;28;20058;-81
2021/12/13 04:12:50;;;;;;;7.43;3.55;;;4.10;99.90;;;;;;5096265;28;20024;-81
2021/12/13 04:15:57;;;;;;;6.05;3.97;;;4.10;99.90;;;;;;5096172;28;20016;-81
2021/12/13 04:21:24;;;;;;;4.53;2.88;;;4.10;99.90;;;;;;5096090;28;20403;-81
2021/12/13 04:23:53;;;;;;;6.68;3.80;;;4.10;99.90;;;;;;5096056;28;20047;-81
2021/12/13 04:26:20;;;;;;;6.90;3.20;;;4.10;99.90;;;;;;5077766;28;20030;-81
2021/12/13 04:28:50;;;;;;;7.85;3.88;;;4.10;99.90;;;;;;5077690;28;20024;-81
2021/12/13 04:31:21;;;;;;;4.32;3.20;;;4.10;99.90;;;;;;5096166;28;20065;-81
2021/12/13 04:33:53;;;;;;;4.22;3.10;;;4.10;99.90;;;;;;5095809;28;20087;-81
2021/12/13 04:36:28;;;;;;;7.97;3.08;;;4.10;99.90;;;;;;5095809;28;20032;-81
2021/12/13 04:38:59;;;;;;;5.55;2.97;;;4.20;99.90;;;;;;5095572;28;20562;-81
2021/12/13 04:41:43;;;;;;;5.45;3.40;;;4.20;99.90;;;;;;5077489;28;20084;-81
2021/12/13 04:44:19;;;;;;;5.73;3.53;;;4.20;99.90;;;;;;5077555;28;20115;-81
2021/12/13 04:46:52;;;;;;;6.03;3.53;;;4.20;99.90;;;;;;5077391;28;20515;-81
2021/12/13 04:49:21;;;;;;;5.53;3.43;;;4.20;99.90;;;;;;5076187;28;20021;-81
2021/12/13 04:52:00;;;;;;;5.88;3.33;;;4.30;99.90;;;;;;5077401;28;20053;-81
2021/12/13 04:54:28;;;;;;;5.72;3.42;;;4.20;99.90;;;;;;5095649;28;20067;-81
2021/12/13 04:56:56;;;;;;;4.78;3.08;;;4.20;99.90;;;;;;5095345;28;20073;-81
2021/12/13 04:59:28;;;;;;;6.72;3.08;;;4.20;99.90;;;;;;5077321;28;20490;-81
2021/12/13 05:01:58;;;;;;;5.53;3.50;;;4.20;99.90;;;;;;5077150;28;20028;-81
2021/12/13 05:04:26;;;;;;;8.75;3.45;;;4.10;99.90;;;;;;5095555;28;20107;-81
2021/12/13 05:06:53;;;;;;;5.20;3.42;;;4.10;99.90;;;;;;5095175;28;20027;-81
2021/12/13 05:09:21;;;;;;;5.43;3.70;;;4.10;99.90;;;;;;5077046;28;20034;-81
2021/12/13 05:12:01;;;;;;;7.20;3.55;;;4.10;99.90;;;;;;5095112;28;20036;-81
2021/12/13 05:14:37;;;;;;;6.90;3.55;;;4.00;99.90;;;;;;5077139;28;20123;-82
2021/12/13 05:17:43;;;;;;;5.40;3.38;;;4.00;99.90;;;;;;5095102;28;20024;-81
2021/12/13 05:20:27;;;;;;;5.68;3.20;;;4.00;99.90;;;;;;5076787;28;20031;-81
2021/12/13 05:23:05;;;;;;;6.10;3.15;;;4.00;99.90;;;;;;5094925;28;20099;-82
2021/12/13 05:25:34;;;;;;;5.28;3.17;;;4.00;99.90;;;;;;5076804;28;20024;-81
2021/12/13 05:28:05;;;;;;;5.63;3.22;;;4.10;99.90;;;;;;5076738;28;20479;-81
2021/12/13 05:30:32;;;;;;;6.55;3.33;;;4.10;99.90;;;;;;5076699;28;20489;-81
2021/12/13 05:33:07;;;;;;;6.28;3.97;;;4.10;99.90;;;;;;5094742;28;20050;-81
2021/12/13 05:35:37;;;;;;;7.47;4.05;;;4.10;99.90;;;;;;5076609;28;20032;-82
2021/12/13 05:38:08;;;;;;;5.90;3.60;;;4.10;99.90;;;;;;5094484;28;20024;-82
2021/12/13 05:40:44;;;;;;;6.40;3.80;;;4.20;99.90;;;;;;5077275;28;20040;-82
2021/12/13 05:43:25;;;;;;;5.40;3.65;;;4.20;99.90;;;;;;5094875;28;20026;-81
2021/12/13 05:46:17;;;;;;;5.85;3.38;;;4.30;99.90;;;;;;5076270;28;20024;-81
2021/12/13 05:48:56;;;;;;;4.75;2.85;;;4.30;99.90;;;;;;5076193;28;20027;-81
2021/12/13 05:51:34;;;;;;;5.72;3.53;;;4.20;99.90;;;;;;5076209;28;20028;-82
2021/12/13 05:54:05;;;;;;;5.95;3.75;;;4.20;99.90;;;;;;5076149;28;20024;-82
2021/12/13 05:56:44;;;;;;;6.55;3.20;;;4.30;99.90;;;;;;5076049;28;20024;-81
2021/12/13 05:59:31;;;;;;;5.70;3.03;;;4.30;99.90;;;;;;5076095;28;20020;-81
2021/12/13 06:02:16;;;;;;;6.90;3.30;;;4.30;99.90;;;;;;5075654;28;20024;-81
2021/12/13 06:04:54;;;;;;;4.57;3.63;;;4.30;99.90;;;;;;5075935;28;20120;-81
2021/12/13 06:07:36;;;;;;;6.03;3.38;;;4.30;99.90;;;;;;5094487;28;20035;-81
2021/12/13 06:10:15;;;;;;;5.35;2.90;;;4.20;99.90;;;;;;5075793;28;20028;-82
2021/12/13 06:12:58;;;;;;;5.18;3.10;;;4.20;99.90;;;;;;5075810;28;20028;-81
2021/12/13 06:15:28;;;;;;;4.97;2.40;;;4.20;99.90;;;;;;5094138;28;20426;-81
2021/12/13 06:18:03;;;;;;;5.15;2.42;;;4.20;99.90;;;;;;5093877;28;20051;-81
2021/12/13 06:20:44;;;;;;;4.43;2.65;;;4.20;99.90;;;;;;5094137;28;20020;-81
2021/12/13 06:23:16;;;;;;;4.78;2.25;;;4.20;99.90;;;;;;5075586;28;20055;-81
2021/12/13 06:25:46;;;;;;;3.67;2.33;;;4.20;99.90;;;;;;5093707;28;20034;-81
2021/12/13 06:28:27;;;;;;;5.50;2.22;;;4.30;99.90;;;;;;5093921;28;20032;-81
2021/12/13 06:31:15;;;;;;;5.82;2.88;;;4.30;99.90;;;;;;5075385;28;20119;-81
2021/12/13 06:33:47;;;;;;;3.50;2.40;;;4.30;99.90;;;;;;5093432;28;20493;-81
2021/12/13 06:36:14;;;;;;;3.67;2.38;;;4.30;99.90;;;;;;5075282;28;20047;-81
2021/12/13 06:38:52;;;;;;;3.03;2.28;;;4.30;99.90;;;;;;5075133;28;20040;-81
2021/12/13 06:41:27;;;;;;;4.40;2.33;;;4.30;99.90;;;;;;5075349;28;20076;-81
2021/12/13 06:44:26;;;;;;;4.22;2.72;;;4.20;99.90;;;;;;5093448;28;20043;-81
2021/12/13 06:47:01;;;;;;;9.48;5.30;;;4.30;99.90;;;;;;5075283;28;20147;-81
2021/12/13 06:49:33;;;;;;;9.57;5.05;;;4.20;99.90;;;;;;5093304;28;20531;-81
2021/12/13 06:52:14;;;;;;;7.20;4.75;;;4.20;99.90;;;;;;5075255;28;20040;-81
2021/12/13 06:54:44;;;;;;;7.47;4.07;;;4.30;99.90;;;;;;5075050;28;20028;-81
2021/12/13 06:57:19;;;;;;;7.45;5.10;;;4.30;99.90;;;;;;5075156;28;20070;-81
2021/12/13 06:59:59;;;;;;;6.47;5.32;;;4.30;99.90;;;;;;5093294;28;20042;-81
2021/12/13 07:02:53;;;;;;;5.75;3.58;;;4.30;99.90;;;;;;5093262;28;20023;-82
2021/12/13 07:05:21;;;;;;;4.30;3.40;;;4.30;99.90;;;;;;5075115;28;20058;-81
2021/12/13 07:07:55;;;;;;;6.65;4.07;;;4.30;99.90;;;;;;5093158;28;20047;-81
2021/12/13 07:10:34;;;;;;;9.57;3.67;;;4.30;99.90;;;;;;5075077;28;20040;-81
2021/12/13 07:13:07;;;;;;;6.10;3.13;;;4.30;99.90;;;;;;5074319;28;20031;-81
2021/12/13 07:15:33;;;;;;;6.75;3.33;;;4.20;99.90;;;;;;5093088;28;20024;-81
2021/12/13 07:18:17;;;;;;;6.10;3.42;;;4.20;99.90;;;;;;5074995;28;20020;-81
2021/12/13 07:20:51;;;;;;;9.60;3.90;;;4.20;99.90;;;;;;5093128;28;20020;-82
2021/12/13 07:23:17;;;;;;;;;;;4.20;99.90;;;;;;5093721;28;20055;-81
2021/12/13 07:25:46;;;;;;;7.22;4.57;;;4.20;99.90;;;;;;5074806;28;19904;-81
2021/12/13 07:28:25;;;;;;;5.03;3.78;;;4.20;99.90;;;;;;5075130;28;20425;-81
2021/12/13 07:30:53;;;;;;;8.35;5.20;;;4.20;99.90;;;;;;5074810;28;20043;-81
2021/12/13 07:33:19;;;;;;;12.80;7.05;;;4.30;99.90;;;;;;5074823;28;20059;-81
2021/12/13 07:35:48;;;;;;;11.55;7.65;;;4.30;99.90;;;;;;5093102;28;20468;-81
2021/12/13 07:38:14;;;;;;;7.45;5.60;;;4.20;99.90;;;;;;5074458;28;20452;-81
2021/12/13 07:40:44;;;;;;;5.60;3.67;;;4.30;99.90;;;;;;5074981;28;20024;-81
2021/12/13 07:43:26;;;;;;;7.78;4.20;;;4.30;99.90;;;;;;5074870;28;20031;-81
2021/12/13 07:45:55;;;;;;;7.00;4.50;;;4.40;99.90;;;;;;5092785;28;20050;-79
2021/12/13 07:48:36;;;;;;;10.63;3.45;;;4.40;99.90;;;;;;5074559;28;20364;-79
2021/12/13 07:51:28;;;;;;;13.63;3.83;;;4.40;99.90;;;;;;5074616;28;20540;-79
2021/12/13 07:53:57;;;;;;;7.15;3.45;;;4.50;99.90;;;;;;5092782;28;20052;-79
2021/12/13 07:56:28;;;;;;;6.47;3.85;;;4.50;99.90;;;;;;5074501;28;20020;-78
2021/12/13 07:59:25;;;;;;;5.63;3.47;;;4.50;99.90;;;;;;5092676;28;20020;-79
2021/12/13 08:01:50;;;;;;;7.45;3.42;;;4.50;99.90;;;;;;5059409;28;20036;-79
2021/12/13 08:04:22;;;;;;;5.47;3.33;;;4.50;99.90;;;;;;5074498;28;20356;-79
2021/12/13 08:07:06;;;;;;;6.68;3.95;;;4.60;99.90;;;;;;5092895;28;20023;-79
2021/12/13 08:09:33;;;;;;;8.43;4.03;;;4.60;99.90;;;;;;5092871;28;20479;-79
2021/12/13 08:12:19;;;;;;;13.23;4.07;;;4.60;99.90;;;;;;5074412;28;20266;-79
2021/12/13 08:14:47;;;;;;;11.85;4.57;;;4.60;99.90;;;;;;5074273;28;20024;-79
2021/12/13 08:17:26;;;;;;;7.78;4.00;;;4.60;99.90;;;;;;5092402;28;20491;-79
2021/12/13 08:20:08;;;;;;;7.50;3.53;;;4.70;99.90;;;;;;5074384;28;20116;-78
2021/12/13 08:22:34;;;;;;;10.55;4.43;;;4.70;99.90;;;;;;5058320;28;20032;-79
2021/12/13 08:25:08;;;;;;;6.57;3.38;;;4.70;99.90;;;;;;5094948;28;20491;-79
2021/12/13 08:27:43;;;;;;;11.75;4.45;;;4.70;99.90;;;;;;5096054;28;20035;-79
2021/12/13 08:30:12;;;;;;;11.60;5.60;;;4.70;99.90;;;;;;5096263;28;20036;-79
2021/12/13 08:32:52;;;;;;;20.77;8.73;;;4.80;99.90;;;;;;5077708;28;20032;-79
2021/12/13 08:35:18;;;;;;;11.23;5.57;;;4.80;99.90;;;;;;5077601;28;20024;-79
2021/12/13 08:37:45;;;;;;;10.70;5.55;;;4.90;99.90;;;;;;5095778;28;20135;-79
2021/12/13 08:40:22;;;;;;;14.40;5.43;;;4.90;99.90;;;;;;5095686;28;20596;-78
2021/12/13 08:42:49;;;;;;;10.85;4.55;;;5.00;99.90;;;;;;5077585;28;20388;-79
2021/12/13 08:45:27;;;;;;;7.65;4.10;;;5.00;99.90;;;;;;5095905;28;20020;-78
2021/12/13 08:48:01;;;;;;;12.93;4.70;;;5.00;99.90;;;;;;5095608;28;20016;-79
2021/12/13 08:50:38;;;;;;;13.55;4.55;;;5.10;99.90;;;;;;5095684;28;20030;-79
2021/12/13 08:53:12;;;;;;;9.13;4.55;;;5.10;99.90;;;;;;5077339;28;20093;-79
2021/12/13 08:56:05;;;;;;;9.10;4.63;;;5.10;99.90;;;;;;5077186;28;20032;-79
2021/12/13 08:58:31;;;;;;;11.70;4.97;;;5.20;99.90;;;;;;5077284;28;20069;-79
2021/12/13 09:01:09;;;;;;;11.07;5.57;;;5.20;99.90;;;;;;5095363;28;20031;-79
2021/12/13 09:03:46;;;;;;;9.63;5.30;;;5.30;99.90;;;;;;5077087;28;20435;-79
2021/12/13 09:06:17;;;;;;;15.93;7.28;;;5.40;99.90;;;;;;5077094;28;20024;-79
2021/12/13 09:08:49;;;;;;;11.95;5.43;;;5.40;99.90;;;;;;5076973;28;20039;-78
2021/12/13 09:11:25;;;;;;;12.43;5.78;;;5.50;99.90;;;;;;5095537;28;20027;-79
2021/12/13 09:13:56;;;;;;;10.18;5.60;;;5.60;99.90;;;;;;5095079;28;20030;-79
2021/12/13 09:16:44;;;;;;;13.40;6.40;;;5.50;99.90;;;;;;5076857;28;20061;-78
2021/12/13 09:19:28;;;;;;;11.00;6.75;;;5.60;99.90;;;;;;5076873;28;20024;-79
2021/12/13 09:21:58;;;;;;;10.00;7.05;;;5.60;99.90;;;;;;5076867;28;20028;-78
2021/12/13 09:24:49;;;;;;;11.30;6.53;;;5.70;99.90;;;;;;5076698;28;20066;-78
2021/12/13 09:27:40;;;;;;;9.88;6.30;;;5.80;99.90;;;;;;5081393;28;20032;-81
2021/12/13 09:30:12;;;;;;;11.05;6.32;;;5.90;99.90;;;;;;5076540;28;20020;-79
2021/12/13 09:32:50;;;;;;;9.88;6.13;;;5.90;99.90;;;;;;5076433;28;20093;-79
2021/12/13 09:35:24;;;;;;;12.40;5.75;;;5.80;99.90;;;;;;5094215;28;20426;-79
2021/12/13 09:37:52;;;;;;;17.48;6.07;;;5.70;99.90;;;;;;5076567;28;20023;-79
2021/12/13 09:40:24;;;;;;;17.10;6.70;;;5.80;99.90;;;;;;5094214;28;20044;-79
2021/12/13 09:42:56;;;;;;;14.23;6.50;;;5.90;99.90;;;;;;5094564;28;20023;-79
2021/12/13 09:45:37;;;;;;;14.43;7.55;;;6.10;99.90;;;;;;5076380;28;20027;-79
2021/12/13 09:48:25;;;;;;;13.63;7.57;;;6.20;99.90;;;;;;5094520;28;20020;-79
2021/12/13 09:50:56;;;;;;;13.63;6.63;;;6.30;99.90;;;;;;5094711;28;20111;-79
2021/12/13 09:53:27;;;;;;;16.55;7.82;;;6.40;99.90;;;;;;5076214;28;20481;-79
2021/12/13 09:55:54;;;;;;;14.98;8.85;;;6.40;99.90;;;;;;5076105;28;20024;-79
2021/12/13 09:58:36;;;;;;;12.48;6.70;;;6.40;99.90;;;;;;5094514;28;20095;-79
2021/12/13 10:01:12;;;;;;;12.82;6.38;;;6.40;99.90;;;;;;5076174;28;20107;-79
2021/12/13 10:03:58;;;;;;;16.13;7.35;;;6.30;99.90;;;;;;5076270;28;20069;-79
2021/12/13 10:06:31;;;;;;;12.05;6.88;;;6.30;99.90;;;;;;5075956;28;20094;-79
2021/12/13 10:09:20;;;;;;;19.20;8.43;;;6.30;99.90;;;;;;5094364;28;20051;-79
2021/12/13 10:11:57;;;;;;;12.13;7.07;;;6.30;99.90;;;;;;5075903;28;20032;-79
2021/12/13 10:14:30;;;;;;;19.17;6.63;;;6.40;99.90;;;;;;5075751;28;20024;-80
2021/12/13 10:16:57;;;;;;;12.48;6.18;;;6.50;99.90;;;;;;5093931;28;20532;-79
2021/12/13 10:19:28;;;;;;;14.15;6.55;;;6.60;99.90;;;;;;5075790;28;20111;-79
2021/12/13 10:21:55;;;;;;;12.23;6.88;;;6.80;99.90;;;;;;5074929;28;20038;-79
2021/12/13 10:24:25;;;;;;;9.57;5.82;;;6.80;99.90;;;;;;5093608;28;20035;-79
2021/12/13 10:26:53;;;;;;;9.13;4.85;;;7.00;99.90;;;;;;5075637;28;20048;-79
2021/12/13 10:29:19;;;;;;;6.25;4.28;;;7.00;99.90;;;;;;5093702;28;20016;-79
2021/12/13 10:31:50;;;;;;;7.90;4.65;;;7.10;99.90;;;;;;5075902;28;20034;-79
2021/12/13 10:34:20;;;;;;;8.23;4.68;;;7.20;99.90;;;;;;5093991;28;20103;-79
2021/12/13 10:36:52;;;;;;;8.18;4.25;;;7.20;99.90;;;;;;5075272;28;20115;-80
2021/12/13 10:39:26;;;;;;;4.82;3.78;;;7.20;99.90;;;;;;5075181;28;20059;-79
2021/12/13 10:41:55;;;;;;;7.82;4.05;;;7.20;99.90;;;;;;5075430;28;20035;-80
2021/12/13 10:44:29;;;;;;;4.20;3.30;;;7.20;99.90;;;;;;5093542;28;20024;-79
2021/12/13 10:47:09;;;;;;;5.90;3.60;;;7.10;99.90;;;;;;5074771;28;20120;-80
2021/12/13 10:49:37;;;;;;;6.03;4.20;;;7.10;99.90;;;;;;5075070;28;20502;-79
2021/12/13 10:52:14;;;;;;;6.93;4.00;;;7.10;99.90;;;;;;5093376;28;20024;-79
2021/12/13 10:54:46;;;;;;;11.32;7.68;;;7.10;99.90;;;;;;5093288;28;20024;-79
2021/12/13 10:57:31;;;;;;;13.98;9.98;;;7.10;99.90;;;;;;5093280;28;20447;-79
2021/12/13 10:59:58;;;;;;;15.38;9.27;;;7.00;99.90;;;;;;5075147;28;20031;-79
2021/12/13 11:02:29;;;;;;;9.20;5.60;;;7.10;99.90;;;;;;5075066;28;20032;-79
2021/12/13 11:05:11;;;;;;;6.65;3.80;;;7.10;99.90;;;;;;5093207;28;20023;-79
2021/12/13 11:07:38;;;;;;;6.00;3.85;;;7.10;99.90;;;;;;5075074;28;20020;-79
2021/12/13 11:10:09;;;;;;;4.05;2.58;;;7.20;99.90;;;;;;5093135;28;20059;-79
2021/12/13 11:12:40;;;;;;;1.63;1.13;;;7.30;99.90;;;;;;5075064;28;20118;-79
2021/12/13 11:15:14;;;;;;;6.03;1.30;;;7.30;99.90;;;;;;5093116;28;20112;-80
2021/12/13 11:17:40;;;;;;;2.13;1.30;;;7.40;99.90;;;;;;5074946;28;20027;-79
2021/12/13 11:20:23;;;;;;;5.53;3.50;;;7.30;99.90;;;;;;5074861;28;20028;-79
2021/12/13 11:22:50;;;;;;;18.40;10.65;;;7.40;99.90;;;;;;5092981;28;20016;-79
2021/12/13 11:25:23;;;;;;;3.53;2.25;;;7.60;99.90;;;;;;5074814;28;20055;-79
2021/12/13 11:27:49;;;;;;;1.42;1.15;;;7.80;99.90;;;;;;5092949;28;20029;-79
2021/12/13 11:30:22;;;;;;;2.65;1.50;;;7.80;99.90;;;;;;5074770;28;20038;-79
2021/12/13 11:32:57;;;;;;;1.70;1.40;;;7.70;99.90;;;;;;5074697;28;20024;-81
2021/12/13 11:36:06;;;;;;;2.78;1.50;;;7.70;99.90;;;;;;5074485;28;20364;-79
2021/12/13 11:39:00;;;;;;;3.92;1.13;;;7.70;99.90;;;;;;5071077;28;20044;-82
2021/12/13 11:41:51;;;;;;;5.53;1.33;;;7.70;99.90;;;;;;5072546;28;20024;-79
2021/12/13 11:44:54;;;;;;;1.38;1.00;;;7.80;99.90;;;;;;5072908;28;20020;-80
2021/12/13 11:47:29;;;;;;;3.33;2.00;;;7.80;99.90;;;;;;5088380;28;20074;-80
2021/12/13 11:50:08;;;;;;;12.82;5.05;;;7.70;99.90;;;;;;5088122;28;20029;-79
2021/12/13 11:53:12;;;;;;;6.43;4.28;;;7.70;99.90;;;;;;5088078;28;20024;-79
2021/12/13 11:56:08;;;;;;;3.03;1.98;;;7.80;99.90;;;;;;5087917;28;20021;-80
2021/12/13 11:58:48;;;;;;;2.83;2.08;;;7.60;99.90;;;;;;5088478;28;20059;-80
2021/12/13 12:01:43;;;;;;;2.78;1.98;;;7.50;99.90;;;;;;5091957;28;20472;-79
2021/12/13 12:04:28;;;;;;;;;;;7.50;99.90;;;;;;5092274;28;20020;-80
2021/12/13 12:07:30;;;;;;;4.30;1.90;;;7.50;99.90;;;;;;5076249;28;19912;-79
2021/12/13 12:10:34;;;;;;;4.13;2.15;;;7.50;99.90;;;;;;5091745;28;20480;-79
2021/12/13 12:13:28;;;;;;;3.45;2.60;;;7.50;99.90;;;;;;5076272;28;20029;-79
2021/12/13 12:16:01;;;;;;;3.10;2.45;;;7.40;99.90;;;;;;5091557;28;20033;-79
2021/12/13 12:18:29;;;;;;;5.32;2.65;;;7.40;99.90;;;;;;5075914;28;20023;-80
2021/12/13 12:21:33;;;;;;;2.53;2.10;;;7.40;99.90;;;;;;5091522;28;20021;-79
2021/12/13 12:24:06;;;;;;;4.28;1.80;;;7.40;99.90;;;;;;5091435;28;20017;-79
2021/12/13 12:26:33;;;;;;;5.32;2.60;;;7.40;99.90;;;;;;5075836;28;20032;-80
2021/12/13 12:29:02;;;;;;;2.97;2.40;;;7.40;99.90;;;;;;5075724;28;20036;-80
2021/12/13 12:31:34;;;;;;;5.15;3.03;;;7.40;99.90;;;;;;5091257;28;20024;-80
2021/12/13 12:34:01;;;;;;;4.40;3.13;;;7.30;99.90;;;;;;5075641;28;20024;-80
2021/12/13 12:36:42;;;;;;;6.20;3.55;;;7.30;99.90;;;;;;5091160;28;20050;-79
2021/12/13 12:39:38;;;;;;;5.43;3.53;;;7.20;99.90;;;;;;5090934;28;20055;-79
2021/12/13 12:42:23;;;;;;;5.35;3.72;;;7.20;99.90;;;;;;5090988;28;20020;-79
2021/12/13 12:44:54;;;;;;;6.03;4.00;;;7.20;99.90;;;;;;5075337;28;20032;-79
2021/12/13 12:47:35;;;;;;;5.80;3.03;;;7.20;99.90;;;;;;5075295;28;20082;-79
2021/12/13 12:50:20;;;;;;;4.97;3.33;;;7.20;99.90;;;;;;5075330;28;20498;-79
2021/12/13 12:53:12;;;;;;;5.68;2.90;;;7.10;99.90;;;;;;5090906;28;20079;-79
2021/12/13 12:55:57;;;;;;;6.18;3.58;;;7.10;99.90;;;;;;5090790;28;20126;-78
2021/12/13 12:58:30;;;;;;;5.13;4.05;;;7.10;99.90;;;;;;5075526;28;20021;-79
2021/12/13 13:01:00;;;;;;;4.68;3.03;;;7.10;99.90;;;;;;5090739;28;20465;-79
2021/12/13 13:03:33;;;;;;;8.02;4.50;;;7.10;99.90;;;;;;5090881;28;20028;-79
2021/12/13 13:06:09;;;;;;;6.30;3.13;;;7.10;99.90;;;;;;5090712;28;20116;-79
2021/12/13 13:08:39;;;;;;;4.70;1.70;;;7.10;99.90;;;;;;5090503;28;20032;-78
2021/12/13 13:11:27;;;;;;;5.15;2.30;;;7.10;99.90;;;;;;5089392;28;20568;-79
2021/12/13 13:14:22;;;;;;;4.65;2.38;;;7.10;99.90;;;;;;5090526;28;20028;-78
2021/12/13 13:16:57;;;;;;;4.97;2.20;;;7.10;99.90;;;;;;5090347;28;20471;-79
2021/12/13 13:19:28;;;;;;;3.22;2.13;;;7.10;99.90;;;;;;5090376;28;20108;-78
2021/12/13 13:22:09;;;;;;;4.38;2.05;;;7.10;99.90;;;;;;5090281;28;20067;-78
2021/12/13 13:24:51;;;;;;;5.60;3.38;;;7.20;99.90;;;;;;5074879;28;20052;-78
2021/12/13 13:27:18;;;;;;;11.60;5.95;;;7.20;99.90;;;;;;5090415;28;20047;-78
2021/12/13 13:29:44;;;;;;;9.10;4.10;;;7.20;99.90;;;;;;5074475;28;20075;-78
2021/12/13 13:32:12;;;;;;;5.20;3.10;;;7.10;99.90;;;;;;5090057;28;20055;-78
2021/12/13 13:34:45;;;;;;;9.40;5.47;;;7.10;99.90;;;;;;5089967;28;20032;-78
2021/12/13 13:37:18;;;;;;;8.82;3.65;;;7.10;99.90;;;;;;5089988;28;20116;-79
2021/12/13 13:39:45;;;;;;;8.98;5.18;;;7.10;99.90;;;;;;5089794;28;20462;-78
2021/12/13 13:42:29;;;;;;;6.32;3.95;;;7.00;99.90;;;;;;5089806;28;20074;-78
2021/12/13 13:44:59;;;;;;;18.45;10.82;;;7.00;99.90;;;;;;5074278;28;20036;-78
2021/12/13 13:47:29;;;;;;;10.48;6.63;;;7.00;99.90;;;;;;5074389;28;20032;-78
2021/12/13 13:49:57;;;;;;;6.78;4.15;;;7.00;99.90;;;;;;5089769;28;20029;-78
2021/12/13 13:52:30;;;;;;;11.18;5.40;;;6.90;99.90;;;;;;5089688;28;20024;-78